sensor_id;sensor_type;location;lat;lon;timestamp;pressure;altitude;pressure_sealevel;temperature;humidity
74065;BME280;62421;51.412;5.432;2023-09-12T00:00:03;101170.56;;;18.62;100.00
74065;BME280;62421;51.412;5.432;2023-09-12T00:02:30;101165.00;;;18.54;100.00
74065;BME280;62421;51.412;5.432;2023-09-12T00:04:55;101161.31;;;18.55;100.00
74065;BME280;62421;51.412;5.432;2023-09-12T00:07:21;101164.16;;;18.53;100.00
74065;BME280;62421;51.412;5.432;2023-09-12T00:09:46;101160.75;;;18.51;100.00
74065;BME280;62421;51.412;5.432;2023-09-12T00:12:15;101159.63;;;18.44;100.00
74065;BME280;62421;51.412;5.432;2023-09-12T00:14:40;101154.81;;;18.38;100.00
74065;BME280;62421;51.412;5.432;2023-09-12T00:17:05;101162.41;;;18.34;100.00
74065;BME280;62421;51.412;5.432;2023-09-12T00:19:31;101166.59;;;18.29;100.00
74065;BME280;62421;51.412;5.432;2023-09-12T00:21:56;101160.28;;;18.28;100.00
74065;BME280;62421;51.412;5.432;2023-09-12T00:24:21;101159.28;;;18.29;100.00
74065;BME280;62421;51.412;5.432;2023-09-12T00:26:47;101157.72;;;18.27;100.00
74065;BME280;62421;51.412;5.432;2023-09-12T00:29:12;101165.47;;;18.21;100.00
74065;BME280;62421;51.412;5.432;2023-09-12T00:31:38;101164.75;;;18.19;100.00
74065;BME280;62421;51.412;5.432;2023-09-12T00:34:03;101162.19;;;18.18;100.00
74065;BME280;62421;51.412;5.432;2023-09-12T00:36:28;101166.75;;;18.17;100.00
74065;BME280;62421;51.412;5.432;2023-09-12T00:38:53;101159.31;;;18.19;100.00
74065;BME280;62421;51.412;5.432;2023-09-12T00:41:19;101166.47;;;18.20;100.00
74065;BME280;62421;51.412;5.432;2023-09-12T00:43:44;101162.19;;;18.18;100.00
74065;BME280;62421;51.412;5.432;2023-09-12T00:46:09;101169.47;;;18.17;100.00
74065;BME280;62421;51.412;5.432;2023-09-12T00:48:36;101161.31;;;18.17;100.00
74065;BME280;62421;51.412;5.432;2023-09-12T00:51:03;101159.06;;;18.13;100.00
74065;BME280;62421;51.412;5.432;2023-09-12T00:53:29;101157.63;;;18.09;100.00
74065;BME280;62421;51.412;5.432;2023-09-12T00:55:57;101152.13;;;18.00;100.00
74065;BME280;62421;51.412;5.432;2023-09-12T00:58:24;101162.09;;;18.00;100.00
74065;BME280;62421;51.412;5.432;2023-09-12T01:00:50;101158.69;;;17.98;100.00
74065;BME280;62421;51.412;5.432;2023-09-12T01:03:15;101159.28;;;17.92;100.00
74065;BME280;62421;51.412;5.432;2023-09-12T01:05:42;101156.28;;;17.95;100.00
74065;BME280;62421;51.412;5.432;2023-09-12T01:08:08;101157.56;;;18.00;100.00
74065;BME280;62421;51.412;5.432;2023-09-12T01:10:33;101156.94;;;18.07;100.00
74065;BME280;62421;51.412;5.432;2023-09-12T01:12:59;101153.22;;;18.08;100.00
74065;BME280;62421;51.412;5.432;2023-09-12T01:15:24;101157.34;;;18.12;100.00
74065;BME280;62421;51.412;5.432;2023-09-12T01:17:49;101148.03;;;18.14;100.00
74065;BME280;62421;51.412;5.432;2023-09-12T01:20:19;101151.47;;;18.16;100.00
74065;BME280;62421;51.412;5.432;2023-09-12T01:28:17;101163.78;;;18.11;100.00
74065;BME280;62421;51.412;5.432;2023-09-12T01:30:45;101162.78;;;18.12;100.00
74065;BME280;62421;51.412;5.432;2023-09-12T01:33:11;101152.91;;;18.11;100.00
74065;BME280;62421;51.412;5.432;2023-09-12T01:35:37;101155.50;;;18.12;100.00
74065;BME280;62421;51.412;5.432;2023-09-12T01:38:02;101156.22;;;18.05;100.00
74065;BME280;62421;51.412;5.432;2023-09-12T01:40:46;101152.25;;;17.99;100.00
74065;BME280;62421;51.412;5.432;2023-09-12T01:43:15;101153.41;;;17.96;100.00
74065;BME280;62421;51.412;5.432;2023-09-12T01:45:42;101158.13;;;17.94;100.00
74065;BME280;62421;51.412;5.432;2023-09-12T01:48:08;101164.56;;;17.93;100.00
74065;BME280;62421;51.412;5.432;2023-09-12T01:50:34;101160.16;;;17.92;100.00
74065;BME280;62421;51.412;5.432;2023-09-12T01:53:00;101163.84;;;17.91;100.00
74065;BME280;62421;51.412;5.432;2023-09-12T01:55:26;101161.00;;;17.93;100.00
74065;BME280;62421;51.412;5.432;2023-09-12T01:57:52;101151.81;;;17.94;100.00
74065;BME280;62421;51.412;5.432;2023-09-12T02:00:18;101155.41;;;17.94;100.00
74065;BME280;62421;51.412;5.432;2023-09-12T02:02:45;101152.41;;;17.97;100.00
74065;BME280;62421;51.412;5.432;2023-09-12T02:05:14;101141.53;;;17.97;100.00
74065;BME280;62421;51.412;5.432;2023-09-12T02:07:42;101141.84;;;17.94;100.00
74065;BME280;62421;51.412;5.432;2023-09-12T02:10:08;101139.56;;;17.90;100.00
74065;BME280;62421;51.412;5.432;2023-09-12T02:12:35;101138.16;;;17.86;100.00
74065;BME280;62421;51.412;5.432;2023-09-12T02:15:01;101137.69;;;17.80;100.00
74065;BME280;62421;51.412;5.432;2023-09-12T02:17:26;101140.84;;;17.76;100.00
74065;BME280;62421;51.412;5.432;2023-09-12T02:19:51;101144.00;;;17.71;100.00
74065;BME280;62421;51.412;5.432;2023-09-12T02:22:17;101140.88;;;17.66;100.00
74065;BME280;62421;51.412;5.432;2023-09-12T02:24:42;101138.31;;;17.65;100.00
74065;BME280;62421;51.412;5.432;2023-09-12T02:27:07;101150.59;;;17.59;100.00
74065;BME280;62421;51.412;5.432;2023-09-12T02:29:33;101136.63;;;17.54;100.00
74065;BME280;62421;51.412;5.432;2023-09-12T02:31:59;101137.78;;;17.51;100.00
74065;BME280;62421;51.412;5.432;2023-09-12T02:34:24;101124.63;;;17.47;100.00
74065;BME280;62421;51.412;5.432;2023-09-12T02:36:49;101140.50;;;17.42;100.00
74065;BME280;62421;51.412;5.432;2023-09-12T02:39:15;101139.06;;;17.37;100.00
74065;BME280;62421;51.412;5.432;2023-09-12T02:41:40;101130.19;;;17.35;100.00
74065;BME280;62421;51.412;5.432;2023-09-12T02:44:06;101134.22;;;17.31;100.00
74065;BME280;62421;51.412;5.432;2023-09-12T02:46:31;101147.22;;;17.28;100.00
74065;BME280;62421;51.412;5.432;2023-09-12T02:48:56;101143.66;;;17.27;100.00
74065;BME280;62421;51.412;5.432;2023-09-12T02:51:22;101148.66;;;17.22;100.00
74065;BME280;62421;51.412;5.432;2023-09-12T02:53:47;101148.22;;;17.17;100.00
74065;BME280;62421;51.412;5.432;2023-09-12T02:56:12;101151.22;;;17.14;100.00
74065;BME280;62421;51.412;5.432;2023-09-12T02:58:37;101147.06;;;17.10;100.00
74065;BME280;62421;51.412;5.432;2023-09-12T03:01:03;101157.91;;;17.10;100.00
74065;BME280;62421;51.412;5.432;2023-09-12T03:03:31;101166.78;;;17.12;100.00
74065;BME280;62421;51.412;5.432;2023-09-12T03:05:57;101164.94;;;17.12;100.00
74065;BME280;62421;51.412;5.432;2023-09-12T03:08:23;101150.94;;;17.07;100.00
74065;BME280;62421;51.412;5.432;2023-09-12T03:10:56;101149.22;;;17.06;100.00
74065;BME280;62421;51.412;5.432;2023-09-12T03:13:23;101147.38;;;17.07;100.00
74065;BME280;62421;51.412;5.432;2023-09-12T03:15:49;101147.50;;;17.05;100.00
74065;BME280;62421;51.412;5.432;2023-09-12T03:18:14;101125.97;;;17.04;100.00
74065;BME280;62421;51.412;5.432;2023-09-12T03:20:40;101135.22;;;17.01;100.00
74065;BME280;62421;51.412;5.432;2023-09-12T03:23:05;101133.53;;;17.00;100.00
74065;BME280;62421;51.412;5.432;2023-09-12T03:25:35;101123.09;;;16.95;100.00
74065;BME280;62421;51.412;5.432;2023-09-12T03:28:00;101124.25;;;16.93;100.00
74065;BME280;62421;51.412;5.432;2023-09-12T03:30:27;101129.66;;;16.93;100.00
74065;BME280;62421;51.412;5.432;2023-09-12T03:32:52;101139.94;;;16.89;100.00
74065;BME280;62421;51.412;5.432;2023-09-12T03:35:17;101137.09;;;16.91;100.00
74065;BME280;62421;51.412;5.432;2023-09-12T03:37:43;101134.50;;;16.89;100.00
74065;BME280;62421;51.412;5.432;2023-09-12T03:40:09;101130.22;;;16.87;100.00
74065;BME280;62421;51.412;5.432;2023-09-12T03:42:35;101147.22;;;16.89;100.00
74065;BME280;62421;51.412;5.432;2023-09-12T03:45:00;101136.06;;;16.92;100.00
74065;BME280;62421;51.412;5.432;2023-09-12T03:47:25;101133.06;;;16.95;100.00
74065;BME280;62421;51.412;5.432;2023-09-12T03:49:51;101129.06;;;16.99;100.00
74065;BME280;62421;51.412;5.432;2023-09-12T03:52:17;101133.09;;;17.05;100.00
74065;BME280;62421;51.412;5.432;2023-09-12T03:54:42;101135.38;;;17.09;100.00
74065;BME280;62421;51.412;5.432;2023-09-12T03:57:08;101123.22;;;17.13;100.00
74065;BME280;62421;51.412;5.432;2023-09-12T03:59:33;101128.38;;;17.16;100.00
74065;BME280;62421;51.412;5.432;2023-09-12T04:02:01;101125.38;;;17.19;100.00
74065;BME280;62421;51.412;5.432;2023-09-12T04:04:27;101135.78;;;17.24;100.00
74065;BME280;62421;51.412;5.432;2023-09-12T04:06:52;101132.94;;;17.26;100.00
74065;BME280;62421;51.412;5.432;2023-09-12T04:09:18;101132.81;;;17.27;100.00
74065;BME280;62421;51.412;5.432;2023-09-12T04:11:43;101118.09;;;17.30;100.00
74065;BME280;62421;51.412;5.432;2023-09-12T04:14:08;101124.22;;;17.32;100.00
74065;BME280;62421;51.412;5.432;2023-09-12T04:16:33;101123.22;;;17.33;100.00
74065;BME280;62421;51.412;5.432;2023-09-12T04:18:59;101121.22;;;17.35;100.00
74065;BME280;62421;51.412;5.432;2023-09-12T04:21:24;101113.78;;;17.37;100.00
74065;BME280;62421;51.412;5.432;2023-09-12T04:23:49;101122.94;;;17.36;100.00
74065;BME280;62421;51.412;5.432;2023-09-12T04:26:15;101122.94;;;17.36;100.00
74065;BME280;62421;51.412;5.432;2023-09-12T04:28:40;101118.63;;;17.33;100.00
74065;BME280;62421;51.412;5.432;2023-09-12T04:31:06;101136.06;;;17.31;100.00
74065;BME280;62421;51.412;5.432;2023-09-12T04:33:31;101117.94;;;17.31;100.00
74065;BME280;62421;51.412;5.432;2023-09-12T04:36:03;101125.22;;;17.31;100.00
74065;BME280;62421;51.412;5.432;2023-09-12T04:38:28;101126.22;;;17.30;100.00
74065;BME280;62421;51.412;5.432;2023-09-12T04:40:57;101136.91;;;17.31;100.00
74065;BME280;62421;51.412;5.432;2023-09-12T04:43:27;101136.78;;;17.33;100.00
74065;BME280;62421;51.412;5.432;2023-09-12T04:45:53;101145.78;;;17.33;100.00
74065;BME280;62421;51.412;5.432;2023-09-12T04:48:18;101144.06;;;17.32;100.00
74065;BME280;62421;51.412;5.432;2023-09-12T04:50:43;101150.66;;;17.30;100.00
74065;BME280;62421;51.412;5.432;2023-09-12T04:53:09;101148.22;;;17.27;100.00
74065;BME280;62421;51.412;5.432;2023-09-12T04:55:37;101144.50;;;17.28;100.00
74065;BME280;62421;51.412;5.432;2023-09-12T04:58:03;101145.81;;;17.24;100.00
74065;BME280;62421;51.412;5.432;2023-09-12T05:00:29;101141.22;;;17.24;100.00
74065;BME280;62421;51.412;5.432;2023-09-12T05:02:55;101145.94;;;17.22;100.00
74065;BME280;62421;51.412;5.432;2023-09-12T05:05:20;101147.94;;;17.20;100.00
74065;BME280;62421;51.412;5.432;2023-09-12T05:07:45;101141.97;;;17.16;100.00
74065;BME280;62421;51.412;5.432;2023-09-12T05:10:11;101150.78;;;17.18;100.00
74065;BME280;62421;51.412;5.432;2023-09-12T05:12:37;101143.66;;;17.17;100.00
74065;BME280;62421;51.412;5.432;2023-09-12T05:15:02;101131.09;;;17.16;100.00
74065;BME280;62421;51.412;5.432;2023-09-12T05:17:28;101133.81;;;17.16;100.00
74065;BME280;62421;51.412;5.432;2023-09-12T05:19:53;101133.81;;;17.16;100.00
74065;BME280;62421;51.412;5.432;2023-09-12T05:22:19;101125.69;;;17.16;100.00
74065;BME280;62421;51.412;5.432;2023-09-12T05:24:45;101121.81;;;17.19;100.00
74065;BME280;62421;51.412;5.432;2023-09-12T05:27:11;101122.66;;;17.19;100.00
74065;BME280;62421;51.412;5.432;2023-09-12T05:29:36;101116.53;;;17.17;100.00
74065;BME280;62421;51.412;5.432;2023-09-12T05:32:02;101112.09;;;17.16;100.00
74065;BME280;62421;51.412;5.432;2023-09-12T05:34:27;101106.81;;;17.15;100.00
74065;BME280;62421;51.412;5.432;2023-09-12T05:36:53;101114.09;;;17.14;100.00
74065;BME280;62421;51.412;5.432;2023-09-12T05:39:18;101111.09;;;17.17;100.00
74065;BME280;62421;51.412;5.432;2023-09-12T05:41:44;101112.09;;;17.16;100.00
74065;BME280;62421;51.412;5.432;2023-09-12T05:44:09;101119.09;;;17.19;100.00
74065;BME280;62421;51.412;5.432;2023-09-12T05:46:37;101118.81;;;17.22;100.00
74065;BME280;62421;51.412;5.432;2023-09-12T05:49:02;101123.06;;;17.25;100.00
74065;BME280;62421;51.412;5.432;2023-09-12T05:51:29;101125.53;;;17.28;100.00
74065;BME280;62421;51.412;5.432;2023-09-12T05:53:54;101128.22;;;17.28;100.00
74065;BME280;62421;51.412;5.432;2023-09-12T05:56:19;101132.22;;;17.24;100.00
74065;BME280;62421;51.412;5.432;2023-09-12T05:58:46;101137.53;;;17.25;100.00
74065;BME280;62421;51.412;5.432;2023-09-12T06:01:11;101151.22;;;17.24;100.00
74065;BME280;62421;51.412;5.432;2023-09-12T06:03:37;101152.94;;;17.25;100.00
74065;BME280;62421;51.412;5.432;2023-09-12T06:06:02;101144.78;;;17.25;100.00
74065;BME280;62421;51.412;5.432;2023-09-12T06:08:29;101139.09;;;17.28;100.00
74065;BME280;62421;51.412;5.432;2023-09-12T06:10:54;101135.34;;;17.29;100.00
74065;BME280;62421;51.412;5.432;2023-09-12T06:13:20;101142.34;;;17.31;100.00
74065;BME280;62421;51.412;5.432;2023-09-12T06:15:46;101130.50;;;17.32;100.00
74065;BME280;62421;51.412;5.432;2023-09-12T06:18:11;101128.66;;;17.33;100.00
74065;BME280;62421;51.412;5.432;2023-09-12T06:20:37;101129.94;;;17.29;100.00
74065;BME280;62421;51.412;5.432;2023-09-12T06:23:03;101134.38;;;17.30;100.00
74065;BME280;62421;51.412;5.432;2023-09-12T06:25:29;101134.06;;;17.33;100.00
74065;BME280;62421;51.412;5.432;2023-09-12T06:27:54;101139.78;;;17.39;100.00
74065;BME280;62421;51.412;5.432;2023-09-12T06:30:20;101141.19;;;17.44;100.00
74065;BME280;62421;51.412;5.432;2023-09-12T06:32:46;101146.34;;;17.47;100.00
74065;BME280;62421;51.412;5.432;2023-09-12T06:35:12;101159.31;;;17.53;100.00
74065;BME280;62421;51.412;5.432;2023-09-12T06:37:38;101162.91;;;17.53;100.00
74065;BME280;62421;51.412;5.432;2023-09-12T06:40:05;101159.19;;;17.54;100.00
74065;BME280;62421;51.412;5.432;2023-09-12T06:42:31;101166.34;;;17.55;100.00
74065;BME280;62421;51.412;5.432;2023-09-12T06:44:56;101167.78;;;17.59;100.00
74065;BME280;62421;51.412;5.432;2023-09-12T06:47:21;101169.34;;;17.62;100.00
74065;BME280;62421;51.412;5.432;2023-09-12T06:49:47;101181.19;;;17.71;100.00
74065;BME280;62421;51.412;5.432;2023-09-12T06:52:12;101179.59;;;17.78;100.00
74065;BME280;62421;51.412;5.432;2023-09-12T06:54:38;101188.16;;;17.83;100.00
74065;BME280;62421;51.412;5.432;2023-09-12T06:57:04;101188.16;;;17.83;100.00
74065;BME280;62421;51.412;5.432;2023-09-12T06:59:29;101180.72;;;17.85;100.00
74065;BME280;62421;51.412;5.432;2023-09-12T07:01:54;101180.47;;;17.88;100.00
74065;BME280;62421;51.412;5.432;2023-09-12T07:04:19;101168.75;;;17.88;100.00
74065;BME280;62421;51.412;5.432;2023-09-12T07:06:45;101161.59;;;17.87;100.00
74065;BME280;62421;51.412;5.432;2023-09-12T07:09:10;101157.72;;;17.89;100.00
74065;BME280;62421;51.412;5.432;2023-09-12T07:11:39;101157.13;;;17.95;100.00
74065;BME280;62421;51.412;5.432;2023-09-12T07:14:04;101157.81;;;18.07;100.00
74065;BME280;62421;51.412;5.432;2023-09-12T07:16:31;101155.47;;;18.22;100.00
74065;BME280;62421;51.412;5.432;2023-09-12T07:18:56;101169.41;;;18.37;100.00
74065;BME280;62421;51.412;5.432;2023-09-12T07:21:22;101173.63;;;18.49;100.00
74065;BME280;62421;51.412;5.432;2023-09-12T07:23:48;101172.03;;;18.56;100.00
74065;BME280;62421;51.412;5.432;2023-09-12T07:26:14;101167.44;;;18.57;100.00
74065;BME280;62421;51.412;5.432;2023-09-12T07:28:39;101177.06;;;18.51;100.00
74065;BME280;62421;51.412;5.432;2023-09-12T07:31:05;101176.81;;;18.45;100.00
74065;BME280;62421;51.412;5.432;2023-09-12T07:33:30;101166.53;;;18.38;100.00
74065;BME280;62421;51.412;5.432;2023-09-12T07:35:55;101178.69;;;18.34;100.00
74065;BME280;62421;51.412;5.432;2023-09-12T07:38:21;101170.72;;;18.33;100.00
74065;BME280;62421;51.412;5.432;2023-09-12T07:40:46;101167.28;;;18.31;100.00
74065;BME280;62421;51.412;5.432;2023-09-12T07:43:12;101172.88;;;18.29;100.00
74065;BME280;62421;51.412;5.432;2023-09-12T07:45:37;101176.31;;;18.31;100.00
74065;BME280;62421;51.412;5.432;2023-09-12T07:48:07;101171.59;;;18.24;100.00
74065;BME280;62421;51.412;5.432;2023-09-12T07:50:33;101176.63;;;18.18;100.00
74065;BME280;62421;51.412;5.432;2023-09-12T07:52:59;101168.75;;;18.25;100.00
74065;BME280;62421;51.412;5.432;2023-09-12T07:55:24;101169.31;;;18.29;100.00
74065;BME280;62421;51.412;5.432;2023-09-12T07:57:49;101176.44;;;18.30;100.00
74065;BME280;62421;51.412;5.432;2023-09-12T08:00:15;101178.16;;;18.31;100.00
74065;BME280;62421;51.412;5.432;2023-09-12T08:02:42;101173.13;;;18.36;100.00
74065;BME280;62421;51.412;5.432;2023-09-12T08:05:07;101183.00;;;18.37;100.00
74065;BME280;62421;51.412;5.432;2023-09-12T08:07:33;101191.56;;;18.42;100.00
74065;BME280;62421;51.412;5.432;2023-09-12T08:09:59;101192.97;;;18.46;100.00
74065;BME280;62421;51.412;5.432;2023-09-12T08:12:26;101198.81;;;18.51;100.00
74065;BME280;62421;51.412;5.432;2023-09-12T08:14:55;101207.63;;;18.63;100.00
74065;BME280;62421;51.412;5.432;2023-09-12T08:17:22;101209.66;;;18.89;100.00
74065;BME280;62421;51.412;5.432;2023-09-12T08:19:48;101212.88;;;19.20;100.00
74065;BME280;62421;51.412;5.432;2023-09-12T08:22:13;101226.56;;;19.46;100.00
74065;BME280;62421;51.412;5.432;2023-09-12T08:24:39;101228.03;;;19.76;100.00
74065;BME280;62421;51.412;5.432;2023-09-12T08:27:05;101226.84;;;19.97;100.00
74065;BME280;62421;51.412;5.432;2023-09-12T08:29:31;101231.78;;;20.28;100.00
74065;BME280;62421;51.412;5.432;2023-09-12T08:31:58;101235.81;;;20.50;100.00
74065;BME280;62421;51.412;5.432;2023-09-12T08:34:24;101227.72;;;20.58;100.00
74065;BME280;62421;51.412;5.432;2023-09-12T08:36:49;101234.72;;;20.60;100.00
74065;BME280;62421;51.412;5.432;2023-09-12T08:39:17;101234.06;;;20.66;100.00
74065;BME280;62421;51.412;5.432;2023-09-12T08:41:43;101238.06;;;20.80;100.00
74065;BME280;62421;51.412;5.432;2023-09-12T08:44:11;101226.31;;;20.96;100.00
74065;BME280;62421;51.412;5.432;2023-09-12T08:46:40;101229.97;;;21.13;100.00
74065;BME280;62421;51.412;5.432;2023-09-12T08:49:06;101231.50;;;21.24;100.00
74065;BME280;62421;51.412;5.432;2023-09-12T08:51:32;101246.19;;;21.31;100.00
74065;BME280;62421;51.412;5.432;2023-09-12T08:53:58;101250.13;;;21.37;100.00
74065;BME280;62421;51.412;5.432;2023-09-12T08:56:24;101247.41;;;21.37;100.00
74065;BME280;62421;51.412;5.432;2023-09-12T08:58:51;101244.88;;;21.43;100.00
74065;BME280;62421;51.412;5.432;2023-09-12T09:01:18;101229.81;;;21.39;100.00
74065;BME280;62421;51.412;5.432;2023-09-12T09:03:44;101218.38;;;21.27;100.00
74065;BME280;62421;51.412;5.432;2023-09-12T09:06:10;101210.19;;;21.19;100.00
74065;BME280;62421;51.412;5.432;2023-09-12T09:08:36;101214.56;;;20.96;100.00
74065;BME280;62421;51.412;5.432;2023-09-12T09:11:02;101213.31;;;20.82;100.00
74065;BME280;62421;51.412;5.432;2023-09-12T09:13:29;101212.44;;;20.65;100.00
74065;BME280;62421;51.412;5.432;2023-09-12T09:16:14;101221.34;;;20.49;100.00
74065;BME280;62421;51.412;5.432;2023-09-12T09:21:24;101219.41;;;20.33;100.00
74065;BME280;62421;51.412;5.432;2023-09-12T09:23:51;101212.22;;;20.32;100.00
74065;BME280;62421;51.412;5.432;2023-09-12T09:26:17;101204.03;;;20.32;100.00
74065;BME280;62421;51.412;5.432;2023-09-12T09:28:42;101201.31;;;20.32;100.00
74065;BME280;62421;51.412;5.432;2023-09-12T09:31:12;101210.72;;;20.38;100.00
74065;BME280;62421;51.412;5.432;2023-09-12T09:33:42;101213.94;;;20.33;100.00
74065;BME280;62421;51.412;5.432;2023-09-12T09:36:14;101213.59;;;20.36;100.00
74065;BME280;62421;51.412;5.432;2023-09-12T09:38:40;101206.97;;;20.39;100.00
74065;BME280;62421;51.412;5.432;2023-09-12T09:41:06;101203.78;;;20.43;100.00
74065;BME280;62421;51.412;5.432;2023-09-12T09:43:31;101213.81;;;20.43;100.00
74065;BME280;62421;51.412;5.432;2023-09-12T09:45:57;101200.88;;;20.45;100.00
74065;BME280;62421;51.412;5.432;2023-09-12T09:48:24;101209.78;;;20.55;100.00
74065;BME280;62421;51.412;5.432;2023-09-12T09:50:52;101216.16;;;20.64;100.00
74065;BME280;62421;51.412;5.432;2023-09-12T09:53:25;101206.66;;;20.76;100.00
74065;BME280;62421;51.412;5.432;2023-09-12T09:55:51;101201.56;;;20.90;100.00
74065;BME280;62421;51.412;5.432;2023-09-12T09:58:16;101195.78;;;21.01;100.00
74065;BME280;62421;51.412;5.432;2023-09-12T10:00:42;101199.38;;;21.01;100.00
74065;BME280;62421;51.412;5.432;2023-09-12T10:03:10;101195.81;;;21.09;100.00
74065;BME280;62421;51.412;5.432;2023-09-12T10:05:37;101193.44;;;21.14;100.00
74065;BME280;62421;51.412;5.432;2023-09-12T10:08:03;101196.69;;;21.18;100.00
74065;BME280;62421;51.412;5.432;2023-09-12T10:10:32;101191.56;;;21.23;100.00
74065;BME280;62421;51.412;5.432;2023-09-12T10:13:02;101195.34;;;21.30;100.00
74065;BME280;62421;51.412;5.432;2023-09-12T10:15:29;101194.16;;;21.33;100.00
74065;BME280;62421;51.412;5.432;2023-09-12T10:17:58;101193.28;;;21.24;100.00
74065;BME280;62421;51.412;5.432;2023-09-12T10:20:58;101193.44;;;21.22;100.00
74065;BME280;62421;51.412;5.432;2023-09-12T10:23:30;101194.16;;;21.33;100.00
74065;BME280;62421;51.412;5.432;2023-09-12T10:26:02;101174.03;;;21.50;100.00
74065;BME280;62421;51.412;5.432;2023-09-12T10:28:28;101174.72;;;21.60;100.00
74065;BME280;62421;51.412;5.432;2023-09-12T10:30:54;101181.19;;;21.76;100.00
74065;BME280;62421;51.412;5.432;2023-09-12T10:33:22;101176.56;;;21.84;100.00
74065;BME280;62421;51.412;5.432;2023-09-12T10:35:48;101182.19;;;21.99;100.00
74065;BME280;62421;51.412;5.432;2023-09-12T10:38:16;101177.53;;;22.16;100.00
74065;BME280;62421;51.412;5.432;2023-09-12T10:40:44;101186.41;;;22.26;100.00
74065;BME280;62421;51.412;5.432;2023-09-12T10:43:11;101188.94;;;22.36;100.00
74065;BME280;62421;51.412;5.432;2023-09-12T10:45:37;101191.47;;;22.46;100.00
74065;BME280;62421;51.412;5.432;2023-09-12T10:48:04;101192.06;;;22.64;100.00
74065;BME280;62421;51.412;5.432;2023-09-12T10:50:29;101193.22;;;22.78;100.00
74065;BME280;62421;51.412;5.432;2023-09-12T10:52:56;101180.63;;;22.92;100.00
74065;BME280;62421;51.412;5.432;2023-09-12T10:55:32;101182.50;;;22.92;100.00
74065;BME280;62421;51.412;5.432;2023-09-12T10:58:05;101174.59;;;22.97;100.00
74065;BME280;62421;51.412;5.432;2023-09-12T11:00:31;101179.22;;;23.04;100.00
74065;BME280;62421;51.412;5.432;2023-09-12T11:02:58;101182.97;;;23.03;100.00
74065;BME280;62421;51.412;5.432;2023-09-12T11:08:02;101175.88;;;23.17;100.00
74065;BME280;62421;51.412;5.432;2023-09-12T11:10:29;101170.81;;;23.06;100.00
74065;BME280;62421;51.412;5.432;2023-09-12T11:12:56;101168.50;;;22.86;100.00
74065;BME280;62421;51.412;5.432;2023-09-12T11:15:26;101169.03;;;22.82;100.00
74065;BME280;62421;51.412;5.432;2023-09-12T11:18:02;101154.59;;;22.96;100.00
74065;BME280;62421;51.412;5.432;2023-09-12T11:20:49;101166.06;;;23.23;100.00
74065;BME280;62421;51.412;5.432;2023-09-12T11:23:15;101166.06;;;23.46;100.00
74065;BME280;62421;51.412;5.432;2023-09-12T11:25:40;101162.28;;;23.47;100.00
74065;BME280;62421;51.412;5.432;2023-09-12T11:28:05;101172.81;;;23.58;100.00
74065;BME280;62421;51.412;5.432;2023-09-12T11:30:31;101174.50;;;23.59;100.00
74065;BME280;62421;51.412;5.432;2023-09-12T11:32:57;101168.44;;;23.64;100.00
74065;BME280;62421;51.412;5.432;2023-09-12T11:35:25;101169.00;;;23.82;100.00
74065;BME280;62421;51.412;5.432;2023-09-12T11:37:53;101165.53;;;24.03;100.00
74065;BME280;62421;51.412;5.432;2023-09-12T11:40:42;101173.38;;;24.36;100.00
74065;BME280;62421;51.412;5.432;2023-09-12T11:43:19;101175.56;;;24.56;100.00
74065;BME280;62421;51.412;5.432;2023-09-12T11:45:45;101173.09;;;24.61;100.00
74065;BME280;62421;51.412;5.432;2023-09-12T11:48:11;101176.13;;;24.66;100.00
74065;BME280;62421;51.412;5.432;2023-09-12T11:50:37;101170.03;;;24.70;100.00
74065;BME280;62421;51.412;5.432;2023-09-12T11:53:05;101173.38;;;24.66;100.00
74065;BME280;62421;51.412;5.432;2023-09-12T11:55:37;101165.31;;;24.64;100.00
74065;BME280;62421;51.412;5.432;2023-09-12T11:58:03;101170.47;;;24.52;100.00
74065;BME280;62421;51.412;5.432;2023-09-12T12:00:29;101168.56;;;24.38;100.00
74065;BME280;62421;51.412;5.432;2023-09-12T12:02:55;101169.03;;;24.42;100.00
74065;BME280;62421;51.412;5.432;2023-09-12T12:05:21;101174.53;;;24.57;100.00
74065;BME280;62421;51.412;5.432;2023-09-12T12:07:48;101172.97;;;24.69;100.00
74065;BME280;62421;51.412;5.432;2023-09-12T12:10:14;101157.44;;;24.76;100.00
74065;BME280;62421;51.412;5.432;2023-09-12T12:12:39;101161.22;;;24.75;98.29
74065;BME280;62421;51.412;5.432;2023-09-12T12:15:09;101166.53;;;24.77;100.00
74065;BME280;62421;51.412;5.432;2023-09-12T12:17:36;101155.88;;;24.88;100.00
74065;BME280;62421;51.412;5.432;2023-09-12T12:20:02;101163.69;;;25.06;100.00
74065;BME280;62421;51.412;5.432;2023-09-12T12:22:32;101150.13;;;25.20;100.00
74065;BME280;62421;51.412;5.432;2023-09-12T12:25:06;101157.66;;;25.32;100.00
74065;BME280;62421;51.412;5.432;2023-09-12T12:27:32;101146.91;;;25.38;100.00
74065;BME280;62421;51.412;5.432;2023-09-12T12:29:57;101139.06;;;25.34;100.00
74065;BME280;62421;51.412;5.432;2023-09-12T12:32:22;101144.94;;;25.31;98.98
74065;BME280;62421;51.412;5.432;2023-09-12T12:34:48;101138.44;;;25.18;93.24
74065;BME280;62421;51.412;5.432;2023-09-12T12:37:14;101137.84;;;25.01;97.89
74065;BME280;62421;51.412;5.432;2023-09-12T12:39:42;101127.72;;;25.01;98.17
74065;BME280;62421;51.412;5.432;2023-09-12T12:42:08;101126.69;;;25.02;100.00
74065;BME280;62421;51.412;5.432;2023-09-12T12:44:34;101127.53;;;25.03;96.90
74065;BME280;62421;51.412;5.432;2023-09-12T12:47:06;101126.63;;;24.96;99.36